createdAt,value
2018-04-26T00:01:04.296Z,35.60
2018-04-26T00:03:31.718Z,35.80
2018-04-26T00:05:59.154Z,35.90
2018-04-26T00:08:26.737Z,35.60
2018-04-26T00:10:54.158Z,36.00
2018-04-26T00:13:21.658Z,36.00
2018-04-26T00:15:49.077Z,36.50
2018-04-26T00:18:16.570Z,36.90
2018-04-26T00:20:43.998Z,37.50
2018-04-26T00:23:11.425Z,37.10
2018-04-26T00:25:38.855Z,37.20
2018-04-26T00:28:06.410Z,37.10
2018-04-26T00:30:34.030Z,37.40
2018-04-26T00:33:01.459Z,37.30
2018-04-26T00:35:29.646Z,38.30
2018-04-26T00:37:57.081Z,38.30
2018-04-26T00:40:24.592Z,38.20
2018-04-26T00:42:52.016Z,38.10
2018-04-26T00:45:19.511Z,38.10
2018-04-26T00:47:46.989Z,38.10
2018-04-26T00:50:14.728Z,38.50
2018-04-26T00:52:42.146Z,38.60
2018-04-26T00:55:09.642Z,38.70
2018-04-26T00:57:37.094Z,39.00
2018-04-26T01:00:04.549Z,39.20
2018-04-26T01:02:31.964Z,39.20
2018-04-26T01:04:59.385Z,39.10
2018-04-26T01:07:26.935Z,39.40
2018-04-26T01:09:54.350Z,39.80
2018-04-26T01:12:21.769Z,40.00
2018-04-26T01:14:49.197Z,40.40
2018-04-26T01:17:16.609Z,40.70
2018-04-26T01:19:44.814Z,40.90
2018-04-26T01:22:12.235Z,40.80
2018-04-26T01:24:39.725Z,40.40
2018-04-26T01:27:07.146Z,41.40
2018-04-26T01:29:34.565Z,40.60
2018-04-26T01:32:02.134Z,40.60
2018-04-26T01:34:29.871Z,40.80
2018-04-26T01:37:08.998Z,40.60
2018-04-26T01:39:36.414Z,40.60
2018-04-26T01:42:03.905Z,40.50
2018-04-26T01:44:31.319Z,40.60
2018-04-26T01:46:58.818Z,40.40
2018-04-26T01:49:26.267Z,41.00
2018-04-26T01:51:53.697Z,40.90
2018-04-26T01:54:21.113Z,40.60
2018-04-26T01:56:48.651Z,40.50
2018-04-26T01:59:16.259Z,40.30
2018-04-26T02:01:44.479Z,40.00
2018-04-26T02:04:11.887Z,40.00
2018-04-26T02:06:39.388Z,39.60
2018-04-26T02:09:06.810Z,39.80
2018-04-26T02:11:34.234Z,39.50
2018-04-26T02:14:01.659Z,39.10
2018-04-26T02:16:29.130Z,39.00
2018-04-26T02:18:56.667Z,39.10
2018-04-26T02:21:24.098Z,38.40
2018-04-26T02:23:51.522Z,38.00
2018-04-26T02:26:18.952Z,37.40
2018-04-26T02:28:46.402Z,37.30
2018-04-26T02:31:13.828Z,36.20
2018-04-26T02:33:41.318Z,35.90
2018-04-26T02:36:08.767Z,36.00
2018-04-26T02:38:36.202Z,33.70
2018-04-26T02:41:03.775Z,35.00
2018-04-26T02:43:31.205Z,35.40
2018-04-26T02:45:58.693Z,36.00
2018-04-26T02:48:26.153Z,36.40
2018-04-26T02:50:53.617Z,36.30
2018-04-26T02:53:21.170Z,33.10
2018-04-26T02:55:48.685Z,33.30
2018-04-26T02:58:16.902Z,32.80
2018-04-26T03:00:44.356Z,32.80
2018-04-26T03:03:11.803Z,32.90
2018-04-26T03:05:39.233Z,31.50
2018-04-26T03:08:06.668Z,31.10
2018-04-26T03:10:34.177Z,30.80
2018-04-26T03:13:01.605Z,30.50
2018-04-26T03:15:29.083Z,30.50
2018-04-26T03:17:56.513Z,29.90
2018-04-26T03:20:23.942Z,29.80
2018-04-26T03:22:51.361Z,29.20
2018-04-26T03:25:18.909Z,28.90
2018-04-26T03:27:46.351Z,28.90
2018-04-26T03:30:13.821Z,29.00
2018-04-26T03:32:41.242Z,28.30
2018-04-26T03:35:08.681Z,28.20
2018-04-26T03:37:36.190Z,28.30
2018-04-26T03:40:03.646Z,28.10
2018-04-26T03:42:31.062Z,27.70
2018-04-26T03:44:58.564Z,27.60
2018-04-26T03:47:25.994Z,27.50
2018-04-26T03:49:53.470Z,26.80
2018-04-26T03:52:20.901Z,25.70
2018-04-26T03:54:48.381Z,26.10
2018-04-26T03:57:15.810Z,25.80
2018-04-26T03:59:55.093Z,25.90
2018-04-26T04:02:34.386Z,26.10
2018-04-26T04:05:26.761Z,26.30
2018-04-26T04:07:54.510Z,25.90
2018-04-26T04:10:21.974Z,26.40
2018-04-26T04:12:49.475Z,26.50
2018-04-26T04:15:17.185Z,26.50
2018-04-26T04:17:44.615Z,25.50
2018-04-26T04:20:12.099Z,25.70
2018-04-26T04:22:39.535Z,25.60
2018-04-26T04:25:07.310Z,25.70
2018-04-26T04:27:34.771Z,26.00
2018-04-26T04:30:02.234Z,25.70
2018-04-26T04:32:29.697Z,25.70
2018-04-26T04:34:57.183Z,25.50
2018-04-26T04:37:24.595Z,26.20
2018-04-26T04:39:52.017Z,25.30
2018-04-26T04:42:19.450Z,25.20
2018-04-26T04:44:46.964Z,25.80
2018-04-26T04:47:14.431Z,25.80
2018-04-26T04:49:41.845Z,25.70
2018-04-26T04:52:09.346Z,25.50
2018-04-26T04:54:36.854Z,25.90
2018-04-26T04:57:04.549Z,26.40
2018-04-26T04:59:31.974Z,25.90
2018-04-26T05:01:59.417Z,25.70
2018-04-26T05:04:26.925Z,26.10
2018-04-26T05:06:54.378Z,25.40
2018-04-26T05:09:21.805Z,25.10
2018-04-26T05:11:49.282Z,25.00
2018-04-26T05:14:16.688Z,25.30
2018-04-26T05:16:44.113Z,25.50
2018-04-26T05:19:11.574Z,25.80
2018-04-26T05:21:39.001Z,25.70
2018-04-26T05:24:06.498Z,25.50
2018-04-26T05:26:34.031Z,25.90
2018-04-26T05:29:01.486Z,25.30
2018-04-26T05:31:28.906Z,25.60
2018-04-26T05:33:57.333Z,26.10
2018-04-26T05:36:25.633Z,26.00
2018-04-26T05:38:53.062Z,25.30
2018-04-26T05:41:20.514Z,25.30
2018-04-26T05:43:47.943Z,25.30
2018-04-26T05:46:15.398Z,25.60
2018-04-26T05:48:42.894Z,25.60
2018-04-26T05:51:10.346Z,25.30
2018-04-26T05:53:37.767Z,25.40
2018-04-26T05:56:05.292Z,25.90
2018-04-26T05:58:32.744Z,25.80
2018-04-26T06:01:00.920Z,26.00
2018-04-26T06:03:28.713Z,26.00
2018-04-26T06:05:56.073Z,26.40
2018-04-26T06:08:23.498Z,26.10
2018-04-26T06:10:50.997Z,25.80
2018-04-26T06:13:18.439Z,25.10
2018-04-26T06:15:45.873Z,24.70
2018-04-26T06:18:13.377Z,25.00
2018-04-26T06:20:40.835Z,24.80
2018-04-26T06:23:08.305Z,24.70
2018-04-26T06:25:35.729Z,25.00
2018-04-26T06:28:03.152Z,24.70
2018-04-26T06:30:30.582Z,23.60
2018-04-26T06:32:58.101Z,25.20
2018-04-26T06:35:25.573Z,24.60
2018-04-26T06:37:53.197Z,24.70
2018-04-26T06:40:20.801Z,25.10
2018-04-26T06:42:48.558Z,24.80
2018-04-26T06:45:15.990Z,23.90
2018-04-26T06:47:43.423Z,23.20
2018-04-26T06:50:10.925Z,23.20
2018-04-26T06:52:38.355Z,22.00
2018-04-26T06:55:05.793Z,22.40
2018-04-26T06:57:34.213Z,22.10
2018-04-26T07:00:01.636Z,22.00
2018-04-26T07:02:29.127Z,21.10
2018-04-26T07:04:56.680Z,21.10
2018-04-26T07:07:24.249Z,20.50
2018-04-26T07:09:51.706Z,20.00
2018-04-26T07:12:19.164Z,20.30
2018-04-26T07:14:46.616Z,20.50
2018-04-26T07:17:14.169Z,20.20
2018-04-26T07:19:41.584Z,20.20
2018-04-26T07:22:09.014Z,19.50
2018-04-26T07:24:36.447Z,20.30
2018-04-26T07:27:03.999Z,19.40
2018-04-26T07:29:31.486Z,18.60
2018-04-26T07:31:58.886Z,18.50
2018-04-26T07:34:26.305Z,18.30
2018-04-26T07:36:53.819Z,19.40
2018-04-26T07:39:21.270Z,19.20
2018-04-26T07:41:48.703Z,17.80
2018-04-26T07:44:16.192Z,18.10
2018-04-26T07:46:43.629Z,17.10
2018-04-26T07:49:11.045Z,17.60
2018-04-26T07:51:38.466Z,17.70
2018-04-26T07:54:05.908Z,15.70
2018-04-26T07:56:33.466Z,15.60
2018-04-26T07:59:00.920Z,14.80
2018-04-26T08:01:28.413Z,15.60
2018-04-26T08:03:55.777Z,16.20
2018-04-26T08:06:23.219Z,15.40
2018-04-26T08:08:50.757Z,15.40
2018-04-26T08:11:18.534Z,14.30
2018-04-26T08:13:46.162Z,13.50
2018-04-26T08:16:13.611Z,13.60
2018-04-26T08:18:41.137Z,13.80
2018-04-26T08:21:08.562Z,12.70
2018-04-26T08:23:37.098Z,12.80
2018-04-26T08:26:04.449Z,12.00
2018-04-26T08:28:31.934Z,12.30
2018-04-26T08:30:59.370Z,12.50
2018-04-26T08:33:26.856Z,11.50
2018-04-26T08:35:54.299Z,12.10
2018-04-26T08:38:22.557Z,11.10
2018-04-26T08:40:50.060Z,11.00
2018-04-26T08:43:17.607Z,12.10
2018-04-26T08:45:45.355Z,10.70
2018-04-26T08:48:12.785Z,12.40
2018-04-26T08:50:40.270Z,11.40
2018-04-26T08:53:07.698Z,11.40
2018-04-26T08:55:35.186Z,11.00
2018-04-26T08:58:02.600Z,9.90
2018-04-26T09:00:30.091Z,10.50
2018-04-26T09:02:57.508Z,9.80
2018-04-26T09:05:24.938Z,8.50
2018-04-26T09:07:52.468Z,9.30
2018-04-26T09:10:19.915Z,9.60
2018-04-26T09:12:47.334Z,8.80
2018-04-26T09:15:14.756Z,9.40
2018-04-26T09:17:43.118Z,10.10
2018-04-26T09:20:10.553Z,10.00
2018-04-26T09:22:37.983Z,9.00
2018-04-26T09:25:06.182Z,7.70
2018-04-26T09:27:33.598Z,7.70
2018-04-26T09:30:01.156Z,7.90
2018-04-26T09:32:28.561Z,7.70
2018-04-26T09:34:55.994Z,7.60
2018-04-26T09:37:23.409Z,7.40
2018-04-26T09:39:50.928Z,6.80
2018-04-26T09:42:18.390Z,7.40
2018-04-26T09:44:45.851Z,7.40
2018-04-26T09:47:13.482Z,6.00
2018-04-26T09:49:40.946Z,6.50
2018-04-26T09:52:08.517Z,5.50
2018-04-26T09:54:35.970Z,6.10
2018-04-26T09:57:03.501Z,6.40
2018-04-26T09:59:30.916Z,7.00
2018-04-26T10:02:02.650Z,5.80
2018-04-26T10:04:44.943Z,6.30
2018-04-26T10:07:12.483Z,6.80
2018-04-26T10:09:39.933Z,5.10
2018-04-26T10:12:07.521Z,5.60
2018-04-26T10:14:34.938Z,5.00
2018-04-26T10:17:02.406Z,4.10
2018-04-26T10:19:29.785Z,5.00
2018-04-26T10:21:57.252Z,3.60
2018-04-26T10:24:24.666Z,3.70
2018-04-26T10:26:52.254Z,2.50
2018-04-26T10:29:19.705Z,2.70
2018-04-26T10:31:47.138Z,3.50
2018-04-26T10:34:14.584Z,3.70
2018-04-26T10:36:42.089Z,3.60
2018-04-26T10:39:09.501Z,2.90
2018-04-26T10:41:37.003Z,1.40
2018-04-26T10:44:04.426Z,1.60
2018-04-26T10:46:31.858Z,1.40
2018-04-26T10:48:59.273Z,1.60
2018-04-26T10:51:26.814Z,1.70
2018-04-26T10:53:54.253Z,1.00
2018-04-26T10:56:21.731Z,1.40
2018-04-26T10:58:49.197Z,1.00
2018-04-26T11:01:16.610Z,1.50
2018-04-26T11:03:44.102Z,1.00
2018-04-26T11:06:11.530Z,1.00
2018-04-26T11:08:38.993Z,2.30
2018-04-26T11:11:07.074Z,1.60
2018-04-26T11:13:34.540Z,1.00
2018-04-26T11:16:01.998Z,1.00
2018-04-26T11:18:29.456Z,1.00
2018-04-26T11:20:56.911Z,1.00
2018-04-26T11:23:24.337Z,1.00
2018-04-26T11:25:51.757Z,1.00
2018-04-26T11:28:19.194Z,1.10
2018-04-26T11:30:46.627Z,1.00
2018-04-26T11:33:14.137Z,1.00
2018-04-26T11:35:41.610Z,1.00
2018-04-26T11:38:09.035Z,1.00
2018-04-26T11:40:36.559Z,1.00
2018-04-26T11:43:03.969Z,1.00
2018-04-26T11:45:31.394Z,1.00
2018-04-26T11:47:58.825Z,1.00
2018-04-26T11:50:26.386Z,1.00
2018-04-26T11:52:53.846Z,1.00
2018-04-26T11:55:21.343Z,1.00
2018-04-26T11:57:48.753Z,1.00
2018-04-26T12:00:16.174Z,1.00
2018-04-26T12:02:43.720Z,1.00
2018-04-26T12:05:11.125Z,1.00
2018-04-26T12:07:38.557Z,1.00
2018-04-26T12:10:05.958Z,1.00
2018-04-26T12:12:33.487Z,1.00
2018-04-26T12:15:00.958Z,1.00
2018-04-26T12:17:28.361Z,1.00
2018-04-26T12:19:55.807Z,1.00
2018-04-26T12:22:23.315Z,1.00
2018-04-26T12:24:50.783Z,1.00
2018-04-26T12:27:18.408Z,1.00
2018-04-26T12:29:46.602Z,1.00
2018-04-26T12:32:14.012Z,1.00
2018-04-26T12:34:41.522Z,1.00
2018-04-26T12:37:08.975Z,1.00
2018-04-26T12:39:36.382Z,1.00
2018-04-26T12:42:03.870Z,1.00
2018-04-26T12:44:31.230Z,1.00
2018-04-26T12:46:58.632Z,1.00
2018-04-26T12:49:26.257Z,1.00
2018-04-26T12:51:53.697Z,1.00
2018-04-26T12:54:21.115Z,1.00
2018-04-26T12:56:48.548Z,1.00
2018-04-26T12:59:16.090Z,1.00
2018-04-26T13:01:43.501Z,1.00
2018-04-26T13:04:10.993Z,1.00
2018-04-26T13:06:38.419Z,1.00
2018-04-26T13:09:05.874Z,1.00
2018-04-26T13:11:33.357Z,1.00
2018-04-26T13:14:00.821Z,1.00
2018-04-26T13:16:28.246Z,1.00
2018-04-26T13:18:55.669Z,1.00
2018-04-26T13:21:23.207Z,1.00
2018-04-26T13:23:50.524Z,1.00
2018-04-26T13:26:18.110Z,1.00
2018-04-26T13:28:45.562Z,1.00
2018-04-26T13:31:12.974Z,1.00
2018-04-26T13:33:40.393Z,1.00
2018-04-26T13:36:07.918Z,1.00
2018-04-26T13:38:35.342Z,1.00
2018-04-26T13:41:02.750Z,1.00
2018-04-26T13:43:30.201Z,1.00
2018-04-26T13:45:57.687Z,1.00
2018-04-26T13:48:25.112Z,1.00
2018-04-26T13:50:52.673Z,1.00
2018-04-26T13:53:20.116Z,1.00
2018-04-26T13:55:47.525Z,1.00
2018-04-26T13:58:14.955Z,1.00
2018-04-26T14:00:42.474Z,1.00
2018-04-26T14:03:09.849Z,1.00
2018-04-26T14:05:37.288Z,1.00
2018-04-26T14:08:04.765Z,1.00
2018-04-26T14:10:32.186Z,1.00
2018-04-26T14:12:59.681Z,1.00
2018-04-26T14:15:27.222Z,1.00
2018-04-26T14:17:54.657Z,1.00
2018-04-26T14:20:22.100Z,1.00
2018-04-26T14:22:49.524Z,1.00
2018-04-26T14:25:16.945Z,1.00
2018-04-26T14:27:44.390Z,1.00
2018-04-26T14:30:11.955Z,1.00
2018-04-26T14:32:39.369Z,1.00
2018-04-26T14:35:06.811Z,1.00
2018-04-26T14:37:34.286Z,1.00
2018-04-26T14:40:01.787Z,1.00
2018-04-26T14:42:29.203Z,1.00
2018-04-26T14:44:56.740Z,1.00
2018-04-26T14:47:24.334Z,1.00
2018-04-26T14:49:51.931Z,1.00
2018-04-26T14:52:19.362Z,1.00
2018-04-26T14:54:46.794Z,1.00
2018-04-26T14:57:14.225Z,1.00
2018-04-26T14:59:41.651Z,1.00
2018-04-26T15:02:09.062Z,1.00
2018-04-26T15:04:37.257Z,1.00
2018-04-26T15:07:04.724Z,1.00
2018-04-26T15:09:32.149Z,1.00
2018-04-26T15:11:59.574Z,1.00
2018-04-26T15:14:27.070Z,1.00
2018-04-26T15:16:54.584Z,1.00
2018-04-26T15:19:22.016Z,1.00
2018-04-26T15:21:49.471Z,1.00
2018-04-26T15:24:16.918Z,1.00
2018-04-26T15:26:44.378Z,1.00
2018-04-26T15:29:11.791Z,1.00
2018-04-26T15:31:39.210Z,1.00
2018-04-26T15:34:06.670Z,1.00
2018-04-26T15:36:34.119Z,1.00
2018-04-26T15:39:01.662Z,1.00
2018-04-26T15:41:29.080Z,1.00
2018-04-26T15:43:56.490Z,1.00
2018-04-26T15:46:23.935Z,1.00
2018-04-26T15:48:51.494Z,1.00
2018-04-26T15:51:19.254Z,1.00
2018-04-26T15:53:58.533Z,1.00
2018-04-26T15:56:38.585Z,1.00
2018-04-26T15:59:17.890Z,1.00
2018-04-26T16:02:01.733Z,1.00
2018-04-26T16:04:41.013Z,1.00
2018-04-26T16:07:42.423Z,1.00
2018-04-26T16:10:21.707Z,1.00
2018-04-26T16:13:06.675Z,1.00
2018-04-26T16:15:51.582Z,1.00
2018-04-26T16:18:36.479Z,1.00
2018-04-26T16:21:22.090Z,1.00
2018-04-26T16:24:03.333Z,1.00
2018-04-26T16:29:52.318Z,1.00
2018-04-26T16:32:36.322Z,1.00
2018-04-26T16:35:20.318Z,1.00
2018-04-26T16:38:05.217Z,1.00
2018-04-26T16:40:32.673Z,1.00
2018-04-26T16:43:00.133Z,1.00
2018-04-26T16:45:27.526Z,1.00
2018-04-26T16:47:54.958Z,1.00
2018-04-26T16:50:22.411Z,1.00
2018-04-26T16:52:49.861Z,1.00
2018-04-26T16:55:18.206Z,1.00
2018-04-26T16:57:45.654Z,1.00
2018-04-26T17:00:13.250Z,1.00
2018-04-26T17:02:40.697Z,1.00
2018-04-26T17:05:08.145Z,1.00
2018-04-26T17:07:35.562Z,1.00
2018-04-26T17:10:03.063Z,1.00
2018-04-26T17:12:30.528Z,1.00
2018-04-26T17:14:58.775Z,1.00
2018-04-26T17:17:26.199Z,1.00
2018-04-26T17:19:53.626Z,1.00
2018-04-26T17:22:21.211Z,1.00
2018-04-26T17:24:48.727Z,1.00
2018-04-26T17:27:16.142Z,1.00
2018-04-26T17:29:44.326Z,1.00
2018-04-26T17:32:12.026Z,1.00
2018-04-26T17:34:39.502Z,1.00
2018-04-26T17:37:07.137Z,1.00
2018-04-26T17:39:34.556Z,1.00
2018-04-26T17:42:02.971Z,1.00
2018-04-26T17:44:30.469Z,1.00
2018-04-26T17:46:57.895Z,1.00
2018-04-26T17:49:25.316Z,1.00
2018-04-26T17:51:53.518Z,1.00
2018-04-26T17:54:20.966Z,1.00
2018-04-26T17:56:48.390Z,1.00
2018-04-26T17:59:15.797Z,1.00
2018-04-26T18:01:43.278Z,1.00
2018-04-26T18:04:10.692Z,1.00
2018-04-26T18:06:38.155Z,1.00
2018-04-26T18:09:05.642Z,1.00
2018-04-26T18:11:33.081Z,1.00
2018-04-26T18:14:00.556Z,1.00
2018-04-26T18:16:28.071Z,1.00
2018-04-26T18:18:55.493Z,1.00
2018-04-26T18:21:22.911Z,1.00
2018-04-26T18:23:50.360Z,1.00
2018-04-26T18:26:17.912Z,1.00
2018-04-26T18:28:45.631Z,1.00
2018-04-26T18:31:13.119Z,1.00
2018-04-26T18:33:40.557Z,1.00
2018-04-26T18:36:07.957Z,1.00
2018-04-26T18:38:36.246Z,1.00
2018-04-26T18:41:03.932Z,1.00
2018-04-26T18:43:31.355Z,1.00
2018-04-26T18:45:59.101Z,1.00
2018-04-26T18:48:26.841Z,1.00
2018-04-26T18:50:54.315Z,1.00
2018-04-26T18:53:22.582Z,1.00
2018-04-26T18:55:50.002Z,1.00
2018-04-26T18:58:17.449Z,1.00
2018-04-26T19:00:45.838Z,1.00
2018-04-26T19:03:13.249Z,1.00
2018-04-26T19:05:40.880Z,1.10
2018-04-26T19:08:08.301Z,1.00
2018-04-26T19:10:35.721Z,1.70
2018-04-26T19:13:03.153Z,1.50
2018-04-26T19:15:30.622Z,1.70
2018-04-26T19:17:58.093Z,2.20
2018-04-26T19:20:25.545Z,2.60
2018-04-26T19:22:53.074Z,2.90
2018-04-26T19:25:20.523Z,2.80
2018-04-26T19:27:47.981Z,2.90
2018-04-26T19:30:15.372Z,3.20
2018-04-26T19:32:42.907Z,2.90
2018-04-26T19:35:10.363Z,3.00
2018-04-26T19:37:37.894Z,3.20
2018-04-26T19:40:05.587Z,3.30
2018-04-26T19:42:33.010Z,3.30
2018-04-26T19:45:00.478Z,3.20
2018-04-26T19:47:27.896Z,3.20
2018-04-26T19:49:55.406Z,3.90
2018-04-26T19:52:23.167Z,4.10
2018-04-26T19:54:50.577Z,4.30
2018-04-26T19:57:19.012Z,5.10
2018-04-26T19:59:46.426Z,5.10
2018-04-26T20:02:13.916Z,5.60
2018-04-26T20:04:41.534Z,5.90
2018-04-26T20:07:09.742Z,6.40
2018-04-26T20:09:37.220Z,6.40
2018-04-26T20:12:04.842Z,6.40
2018-04-26T20:14:32.410Z,6.60
2018-04-26T20:16:59.882Z,6.70
2018-04-26T20:19:27.334Z,6.90
2018-04-26T20:21:54.748Z,7.00
2018-04-26T20:24:22.254Z,7.10
2018-04-26T20:26:49.693Z,7.40
2018-04-26T20:29:17.154Z,7.60
2018-04-26T20:31:44.573Z,7.80
2018-04-26T20:34:11.998Z,8.00
2018-04-26T20:36:39.525Z,8.60
2018-04-26T20:39:06.986Z,8.80
2018-04-26T20:41:46.105Z,9.60
2018-04-26T20:44:25.565Z,9.90
2018-04-26T20:46:52.966Z,9.80
2018-04-26T20:49:20.394Z,9.80
2018-04-26T20:51:47.919Z,9.80
2018-04-26T20:54:15.365Z,9.80
2018-04-26T20:56:42.822Z,9.80
2018-04-26T20:59:10.278Z,9.80
2018-04-26T21:01:37.713Z,9.80
2018-04-26T21:04:05.210Z,10.30
2018-04-26T21:06:32.659Z,10.40
2018-04-26T21:09:00.302Z,10.70
2018-04-26T21:11:27.878Z,11.00
2018-04-26T21:13:55.306Z,11.30
2018-04-26T21:16:22.730Z,11.30
2018-04-26T21:18:50.243Z,11.40
2018-04-26T21:21:17.677Z,11.80
2018-04-26T21:23:45.097Z,11.90
2018-04-26T21:26:12.534Z,11.70
2018-04-26T21:28:40.058Z,12.60
2018-04-26T21:31:07.420Z,12.30
2018-04-26T21:33:34.919Z,12.30
2018-04-26T21:36:02.433Z,13.00
2018-04-26T21:38:29.893Z,13.30
2018-04-26T21:40:57.326Z,13.50
2018-04-26T21:43:24.806Z,14.50
2018-04-26T21:45:52.240Z,13.90
2018-04-26T21:48:19.658Z,14.60
2018-04-26T21:50:52.640Z,14.50
2018-04-26T21:53:25.818Z,13.90
2018-04-26T21:55:59.085Z,13.70
2018-04-26T21:58:32.174Z,14.50
2018-04-26T22:01:05.249Z,13.80
2018-04-26T22:03:38.248Z,13.40
2018-04-26T22:06:05.732Z,13.80
2018-04-26T22:08:33.094Z,14.10
2018-04-26T22:11:01.553Z,14.10
2018-04-26T22:13:29.165Z,14.00
2018-04-26T22:15:57.682Z,14.20
2018-04-26T22:18:25.136Z,13.60
2018-04-26T22:20:52.766Z,13.20
2018-04-26T22:23:20.229Z,13.10
2018-04-26T22:25:47.709Z,13.10
2018-04-26T22:28:16.199Z,13.50
2018-04-26T22:30:43.854Z,13.70
2018-04-26T22:33:11.404Z,14.20
2018-04-26T22:35:38.830Z,14.10
2018-04-26T22:38:06.318Z,15.50
2018-04-26T22:40:33.776Z,15.10
2018-04-26T22:43:01.236Z,15.10
2018-04-26T22:45:28.661Z,15.00
2018-04-26T22:47:56.150Z,14.40
2018-04-26T22:50:23.566Z,14.60
2018-04-26T22:52:50.997Z,14.40
2018-04-26T22:55:18.415Z,16.00
2018-04-26T22:57:45.844Z,15.50
2018-04-26T23:00:13.322Z,16.20
2018-04-26T23:02:40.847Z,16.70
2018-04-26T23:05:08.258Z,16.70
2018-04-26T23:07:35.710Z,16.60
2018-04-26T23:10:03.143Z,17.40
2018-04-26T23:12:30.757Z,17.20
2018-04-26T23:14:58.176Z,17.00
2018-04-26T23:17:25.601Z,16.50
2018-04-26T23:19:53.107Z,16.00
2018-04-26T23:22:20.705Z,15.50
2018-04-26T23:24:48.174Z,15.30
2018-04-26T23:27:15.654Z,15.30
2018-04-26T23:29:43.161Z,15.00
2018-04-26T23:32:10.662Z,15.10
2018-04-26T23:34:38.096Z,15.00
2018-04-26T23:37:05.581Z,16.10
2018-04-26T23:39:33.033Z,15.50
2018-04-26T23:42:00.494Z,15.00
2018-04-26T23:44:27.921Z,16.40
2018-04-26T23:46:55.406Z,17.60
2018-04-26T23:49:22.843Z,18.40
2018-04-26T23:51:50.269Z,18.20
2018-04-26T23:54:17.768Z,18.10
2018-04-26T23:56:45.225Z,18.90
2018-04-26T23:59:12.681Z,19.20
